createdAt,value
2023-04-15T00:00:46.514Z,202.21
2023-04-15T00:01:46.610Z,202.71
2023-04-15T00:02:45.652Z,201.53
2023-04-15T00:03:46.723Z,201.71
2023-04-15T00:04:46.624Z,199.91
2023-04-15T00:05:45.499Z,202.08
2023-04-15T00:06:45.478Z,201.89
2023-04-15T00:07:46.490Z,201.44
2023-04-15T00:08:46.456Z,199.46
2023-04-15T00:09:45.446Z,200.28
2023-04-15T00:10:46.502Z,200.95
2023-04-15T00:11:46.448Z,199.85
2023-04-15T00:12:46.438Z,198.84
2023-04-15T00:13:46.430Z,200.05
2023-04-15T00:14:45.413Z,199.71
2023-04-15T00:15:46.420Z,199.65
2023-04-15T00:16:46.430Z,198.56
2023-04-15T00:17:46.456Z,199.09
2023-04-15T00:18:46.437Z,197.32
2023-04-15T00:19:45.440Z,198.62
2023-04-15T00:20:45.469Z,198.23
2023-04-15T00:21:46.482Z,198.30
2023-04-15T00:22:45.531Z,197.75
2023-04-15T00:23:46.529Z,198.62
2023-04-15T00:24:45.514Z,198.69
2023-04-15T00:25:46.556Z,197.85
2023-04-15T00:26:46.551Z,197.75
2023-04-15T00:27:45.583Z,197.46
2023-04-15T00:28:45.597Z,196.47
2023-04-15T00:29:45.609Z,196.84
2023-04-15T00:30:46.708Z,196.11
2023-04-15T00:31:46.662Z,197.40
2023-04-15T00:32:46.755Z,197.16
2023-04-15T00:33:46.675Z,198.74
2023-04-15T00:34:45.690Z,197.21
2023-04-15T00:35:46.706Z,195.55
2023-04-15T00:36:46.780Z,193.78
2023-04-15T00:37:46.731Z,194.66
2023-04-15T00:38:46.743Z,195.62
2023-04-15T00:39:45.788Z,197.25
2023-04-15T00:40:45.801Z,195.41
2023-04-15T00:41:47.346Z,194.38
2023-04-15T00:42:45.903Z,195.04
2023-04-15T00:43:45.826Z,194.46
2023-04-15T00:44:46.831Z,193.65
2023-04-15T00:45:46.927Z,194.99
2023-04-15T00:46:45.885Z,193.62
2023-04-15T00:47:46.943Z,192.65
2023-04-15T00:48:46.910Z,192.96
2023-04-15T00:49:46.933Z,194.02
2023-04-15T00:50:45.948Z,193.23
2023-04-15T00:51:45.979Z,193.02
2023-04-15T00:52:46.973Z,191.34
2023-04-15T00:53:46.976Z,192.96
2023-04-15T00:54:47.001Z,192.24
2023-04-15T00:55:46.059Z,191.91
2023-04-15T00:56:47.055Z,192.15
2023-04-15T00:57:46.076Z,193.84
2023-04-15T00:58:46.083Z,192.77
2023-04-15T00:59:47.098Z,192.17
2023-04-15T01:00:47.102Z,190.98
2023-04-15T01:01:47.531Z,190.16
2023-04-15T01:02:47.320Z,190.84
2023-04-15T01:03:47.256Z,191.29
2023-04-15T01:04:46.192Z,192.11
2023-04-15T01:05:46.212Z,190.71
2023-04-15T01:06:46.243Z,190.20
2023-04-15T01:07:47.277Z,190.18
2023-04-15T01:08:46.299Z,190.63
2023-04-15T01:09:47.326Z,189.48
2023-04-15T01:10:47.347Z,188.71
2023-04-15T01:11:47.411Z,187.73
2023-04-15T01:12:47.396Z,187.70
2023-04-15T01:13:47.400Z,188.76
2023-04-15T01:14:47.418Z,188.95
2023-04-15T01:15:46.457Z,188.13
2023-04-15T01:16:46.484Z,188.28
2023-04-15T01:17:46.556Z,186.69
2023-04-15T01:18:47.520Z,187.05
2023-04-15T01:19:46.536Z,186.98
2023-04-15T01:20:47.568Z,186.83
2023-04-15T01:21:46.610Z,185.78
2023-04-15T01:22:46.634Z,185.56
2023-04-15T01:23:47.660Z,184.22
2023-04-15T01:24:47.688Z,185.52
2023-04-15T01:25:47.703Z,185.90
2023-04-15T01:26:47.731Z,185.89
2023-04-15T01:27:46.788Z,184.44
2023-04-15T01:28:47.814Z,186.48
2023-04-15T01:29:46.825Z,185.64
2023-04-15T01:30:46.857Z,185.79
2023-04-15T01:31:47.902Z,184.59
2023-04-15T01:32:47.952Z,184.83
2023-04-15T01:33:46.918Z,183.94
2023-04-15T01:34:46.954Z,185.21
2023-04-15T01:35:47.978Z,183.78
2023-04-15T01:36:47.999Z,184.58
2023-04-15T01:37:47.019Z,184.29
2023-04-15T01:38:47.036Z,183.64
2023-04-15T01:39:47.066Z,183.66
2023-04-15T01:40:48.104Z,183.90
2023-04-15T01:41:48.158Z,183.31
2023-04-15T01:42:48.173Z,183.31
2023-04-15T01:43:47.217Z,184.03
2023-04-15T01:44:47.204Z,182.33
2023-04-15T01:45:48.238Z,181.95
2023-04-15T01:46:47.300Z,182.03
2023-04-15T01:47:48.331Z,180.70
2023-04-15T01:48:48.335Z,182.41
2023-04-15T01:49:48.350Z,184.46
2023-04-15T01:50:47.421Z,183.75
2023-04-15T01:51:48.451Z,183.27
2023-04-15T01:52:48.478Z,183.63
2023-04-15T01:53:48.518Z,183.34
2023-04-15T01:54:48.593Z,182.60
2023-04-15T01:55:47.602Z,181.97
2023-04-15T01:56:48.667Z,180.27
2023-04-15T01:57:48.699Z,181.48
2023-04-15T01:58:48.739Z,180.59
2023-04-15T01:59:48.776Z,179.79
2023-04-15T02:00:48.849Z,181.11
2023-04-15T02:01:48.899Z,181.20
2023-04-15T02:02:47.934Z,180.48
2023-04-15T02:03:48.257Z,181.15
2023-04-15T02:04:48.949Z,181.07
2023-04-15T02:05:48.985Z,181.24
2023-04-15T02:06:49.016Z,180.92
2023-04-15T02:07:48.065Z,180.57
2023-04-15T02:08:49.051Z,178.86
2023-04-15T02:09:48.090Z,180.10
2023-04-15T02:10:49.125Z,177.84
2023-04-15T02:11:48.176Z,179.24
2023-04-15T02:12:48.231Z,179.32
2023-04-15T02:13:49.232Z,179.52
2023-04-15T02:14:48.297Z,180.05
2023-04-15T02:15:48.274Z,179.21
2023-04-15T02:16:48.396Z,178.78
2023-04-15T02:17:49.443Z,177.58
2023-04-15T02:18:48.425Z,178.69
2023-04-15T02:19:49.434Z,180.35
2023-04-15T02:20:49.461Z,179.08
2023-04-15T02:21:49.496Z,178.73
2023-04-15T02:22:49.558Z,179.45
2023-04-15T02:23:49.579Z,178.06
2023-04-15T02:24:49.626Z,180.42
2023-04-15T02:25:53.503Z,179.54
2023-04-15T02:26:49.623Z,179.66
2023-04-15T02:27:48.619Z,179.33
2023-04-15T02:28:48.620Z,178.88
2023-04-15T02:29:48.609Z,178.74
2023-04-15T02:30:48.615Z,176.70
2023-04-15T02:31:49.618Z,177.69
2023-04-15T02:32:48.655Z,178.47
2023-04-15T02:33:48.576Z,176.21
2023-04-15T02:34:49.578Z,174.71
2023-04-15T02:35:49.558Z,177.90
2023-04-15T02:36:49.537Z,176.72
2023-04-15T02:37:49.582Z,175.22
2023-04-15T02:38:48.528Z,174.96
2023-04-15T02:39:48.529Z,175.74
2023-04-15T02:40:49.521Z,174.52
2023-04-15T02:41:49.559Z,175.90
2023-04-15T02:42:49.530Z,173.33
2023-04-15T02:43:49.568Z,173.67
2023-04-15T02:44:48.606Z,172.85
2023-04-15T02:45:49.677Z,173.20
2023-04-15T02:46:49.697Z,172.34
2023-04-15T02:47:49.812Z,174.06
2023-04-15T02:48:48.770Z,175.96
2023-04-15T02:49:48.801Z,173.82
2023-04-15T02:50:49.835Z,173.67
2023-04-15T02:51:49.881Z,173.39
2023-04-15T02:52:48.935Z,173.31
2023-04-15T02:53:49.973Z,173.11
2023-04-15T02:54:50.011Z,172.26
2023-04-15T02:55:50.060Z,172.72
2023-04-15T02:56:50.084Z,171.14
2023-04-15T02:57:50.132Z,171.27
2023-04-15T02:58:49.146Z,170.28
2023-04-15T02:59:50.190Z,172.83
2023-04-15T03:00:50.255Z,171.60
2023-04-15T03:01:49.413Z,170.20
2023-04-15T03:02:50.465Z,171.85
2023-04-15T03:03:49.433Z,170.75
2023-04-15T03:04:49.393Z,171.82
2023-04-15T03:05:50.439Z,172.10
2023-04-15T03:06:49.489Z,171.92
2023-04-15T03:07:50.538Z,170.73
2023-04-15T03:08:49.551Z,170.89
2023-04-15T03:09:49.594Z,170.98
2023-04-15T03:10:50.634Z,170.44
2023-04-15T03:11:50.674Z,169.49
2023-04-15T03:12:50.734Z,169.35
2023-04-15T03:13:50.769Z,168.62
2023-04-15T03:14:49.813Z,169.63
2023-04-15T03:15:50.909Z,171.35
2023-04-15T03:16:49.889Z,169.20
2023-04-15T03:17:50.001Z,171.13
2023-04-15T03:18:49.997Z,170.65
2023-04-15T03:19:51.008Z,169.34
2023-04-15T03:20:50.046Z,171.05
2023-04-15T03:21:50.090Z,169.82
2023-04-15T03:22:51.152Z,167.25
2023-04-15T03:23:50.169Z,167.09
2023-04-15T03:24:51.217Z,167.56
2023-04-15T03:25:51.247Z,167.30
2023-04-15T03:26:51.295Z,167.66
2023-04-15T03:27:51.344Z,166.79
2023-04-15T03:28:50.382Z,169.09
2023-04-15T03:29:51.436Z,166.75
2023-04-15T03:30:51.506Z,166.25
2023-04-15T03:31:50.527Z,166.11
2023-04-15T03:32:50.623Z,166.79
2023-04-15T03:33:50.631Z,166.72
2023-04-15T03:34:50.723Z,164.58
2023-04-15T03:35:51.712Z,165.85
2023-04-15T03:36:50.749Z,165.80
2023-04-15T03:37:51.800Z,164.97
2023-04-15T03:38:51.852Z,165.60
2023-04-15T03:39:50.896Z,163.49
2023-04-15T03:40:50.935Z,164.53
2023-04-15T03:41:51.998Z,164.11
2023-04-15T03:42:51.078Z,163.89
2023-04-15T03:43:51.074Z,163.84
2023-04-15T03:44:52.116Z,163.40
2023-04-15T03:45:52.178Z,163.04
2023-04-15T03:46:52.313Z,164.39
2023-04-15T03:47:52.306Z,161.86
2023-04-15T03:48:52.313Z,162.79
2023-04-15T03:49:52.393Z,162.93
2023-04-15T03:50:52.427Z,163.54
2023-04-15T03:51:51.469Z,162.59
2023-04-15T03:52:52.527Z,162.90
2023-04-15T03:53:51.562Z,162.52
2023-04-15T03:54:51.633Z,162.56
2023-04-15T03:55:51.668Z,161.95
2023-04-15T03:56:52.726Z,161.67
2023-04-15T03:57:52.781Z,163.04
2023-04-15T03:58:52.821Z,161.21
2023-04-15T03:59:52.868Z,161.84
2023-04-15T04:00:52.927Z,161.41
2023-04-15T04:01:52.017Z,162.11
2023-04-15T04:02:53.226Z,159.88
2023-04-15T04:03:52.165Z,159.58
2023-04-15T04:04:52.187Z,160.55
2023-04-15T04:05:53.174Z,160.80
2023-04-15T04:06:52.219Z,159.47
2023-04-15T04:07:52.257Z,159.69
2023-04-15T04:08:53.320Z,157.57
2023-04-15T04:09:53.370Z,159.80
2023-04-15T04:10:53.415Z,159.85
2023-04-15T04:11:53.567Z,158.25
2023-04-15T04:12:53.643Z,157.30
2023-04-15T04:13:52.581Z,158.14
2023-04-15T04:14:53.626Z,159.39
2023-04-15T04:15:52.728Z,158.94
2023-04-15T04:16:53.788Z,158.64
2023-04-15T04:17:53.798Z,158.53
2023-04-15T04:18:53.837Z,159.15
2023-04-15T04:19:53.870Z,158.63
2023-04-15T04:20:52.947Z,158.47
2023-04-15T04:21:53.996Z,158.58
2023-04-15T04:22:53.037Z,157.49
2023-04-15T04:23:53.076Z,156.55
2023-04-15T04:24:53.138Z,156.68
2023-04-15T04:25:54.224Z,156.83
2023-04-15T04:26:54.250Z,156.92
2023-04-15T04:27:53.287Z,155.57
2023-04-15T04:28:53.342Z,155.51
2023-04-15T04:29:54.398Z,155.88
2023-04-15T04:30:54.466Z,155.05
2023-04-15T04:31:53.608Z,154.63
2023-04-15T04:32:53.633Z,155.59
2023-04-15T04:33:54.659Z,155.69
2023-04-15T04:34:53.746Z,156.15
2023-04-15T04:35:54.725Z,155.49
2023-04-15T04:36:54.795Z,153.87
2023-04-15T04:37:54.858Z,154.18
2023-04-15T04:38:54.919Z,153.78
2023-04-15T04:39:54.940Z,154.49
2023-04-15T04:40:55.017Z,154.18
2023-04-15T04:41:55.052Z,152.77
2023-04-15T04:42:55.099Z,153.55
2023-04-15T04:43:55.157Z,152.18
2023-04-15T04:44:54.220Z,151.61
2023-04-15T04:45:54.301Z,153.44
2023-04-15T04:46:55.299Z,153.91
2023-04-15T04:47:55.394Z,153.01
2023-04-15T04:48:55.403Z,151.80
2023-04-15T04:49:54.460Z,153.32
2023-04-15T04:50:55.506Z,152.96
2023-04-15T04:51:55.552Z,152.80
2023-04-15T04:52:55.609Z,152.88
2023-04-15T04:53:55.695Z,152.82
2023-04-15T04:54:55.730Z,151.99
2023-04-15T04:55:54.765Z,153.79
2023-04-15T04:56:54.804Z,153.44
2023-04-15T04:57:55.855Z,152.20
2023-04-15T04:58:54.936Z,150.42
2023-04-15T04:59:55.956Z,151.02
2023-04-15T05:00:55.021Z,151.36
2023-04-15T05:01:56.101Z,151.05
2023-04-15T05:02:56.242Z,154.04
2023-04-15T05:03:56.280Z,151.15
2023-04-15T05:04:55.227Z,149.97
2023-04-15T05:05:55.294Z,149.03
2023-04-15T05:06:56.401Z,149.13
2023-04-15T05:07:56.407Z,151.40
2023-04-15T05:08:56.470Z,151.25
2023-04-15T05:09:55.540Z,152.61
2023-04-15T05:10:56.575Z,151.50
2023-04-15T05:11:56.650Z,151.44
2023-04-15T05:12:56.678Z,152.92
2023-04-15T05:13:56.771Z,152.52
2023-04-15T05:14:56.822Z,149.86
2023-04-15T05:15:56.951Z,150.73
2023-04-15T05:16:55.943Z,149.39
2023-04-15T05:17:57.010Z,149.71
2023-04-15T05:18:57.074Z,149.99
2023-04-15T05:19:57.114Z,149.39
2023-04-15T05:20:56.193Z,148.96
2023-04-15T05:21:56.223Z,146.99
2023-04-15T05:22:57.293Z,149.29
2023-04-15T05:23:56.357Z,149.65
2023-04-15T05:24:56.432Z,149.07
2023-04-15T05:25:56.499Z,149.27
2023-04-15T05:26:57.540Z,147.49
2023-04-15T05:27:56.595Z,148.84
2023-04-15T05:28:57.663Z,148.65
2023-04-15T05:29:57.767Z,147.22
2023-04-15T05:30:56.857Z,150.68
2023-04-15T05:31:57.838Z,147.16
2023-04-15T05:32:56.958Z,149.18
2023-04-15T05:33:56.977Z,147.97
2023-04-15T05:34:58.067Z,147.34
2023-04-15T05:35:58.113Z,147.17
2023-04-15T05:36:58.168Z,147.00
2023-04-15T05:37:57.197Z,145.42
2023-04-15T05:38:58.269Z,146.26
2023-04-15T05:39:57.322Z,144.88
2023-04-15T05:40:58.404Z,146.46
2023-04-15T05:41:58.446Z,145.81
2023-04-15T05:42:57.482Z,146.74
2023-04-15T05:43:58.554Z,145.31
2023-04-15T05:44:58.607Z,143.07
2023-04-15T05:45:58.714Z,146.69
2023-04-15T05:46:57.737Z,147.57
2023-04-15T05:47:57.834Z,145.06
2023-04-15T05:48:57.893Z,144.84
2023-04-15T05:49:57.916Z,145.95
2023-04-15T05:50:58.977Z,145.61
2023-04-15T05:51:59.072Z,146.80
2023-04-15T05:52:58.129Z,145.53
2023-04-15T05:53:59.216Z,145.08
2023-04-15T05:54:59.232Z,144.34
2023-04-15T05:55:59.306Z,146.05
2023-04-15T05:56:59.403Z,145.83
2023-04-15T05:57:59.411Z,144.63
2023-04-15T05:58:59.733Z,143.14
2023-04-15T05:59:59.535Z,143.61
2023-04-15T06:00:59.575Z,143.44
2023-04-15T06:01:58.720Z,142.33
2023-04-15T06:02:58.766Z,142.05
2023-04-15T06:03:59.842Z,141.91
2023-04-15T06:04:59.891Z,142.24
2023-04-15T06:05:59.870Z,142.07
2023-04-15T06:06:58.954Z,143.70
2023-04-15T06:07:59.998Z,141.83
2023-04-15T06:09:00.143Z,143.06
2023-04-15T06:10:00.139Z,142.36
2023-04-15T06:10:59.195Z,143.31
2023-04-15T06:12:00.233Z,141.84
2023-04-15T06:13:00.315Z,143.45
2023-04-15T06:13:59.365Z,142.64
2023-04-15T06:15:00.293Z,141.15
2023-04-15T06:16:00.493Z,141.24
2023-04-15T06:16:59.553Z,142.21
2023-04-15T06:18:00.630Z,141.21
2023-04-15T06:18:59.954Z,140.99
2023-04-15T06:20:00.704Z,139.41
2023-04-15T06:21:00.761Z,139.22
2023-04-15T06:22:00.834Z,140.94
2023-04-15T06:23:00.881Z,139.89
2023-04-15T06:24:00.961Z,140.59
2023-04-15T06:25:00.993Z,139.92
2023-04-15T06:26:01.049Z,138.56
2023-04-15T06:27:01.110Z,139.18
2023-04-15T06:28:01.153Z,140.65
2023-04-15T06:29:01.563Z,139.99
2023-04-15T06:30:00.265Z,136.85
2023-04-15T06:31:01.370Z,138.99
2023-04-15T06:32:01.384Z,140.05
2023-04-15T06:33:00.504Z,139.10
2023-04-15T06:34:00.483Z,139.67
2023-04-15T06:35:00.567Z,138.61
2023-04-15T06:36:01.633Z,139.10
2023-04-15T06:37:00.666Z,138.80
2023-04-15T06:38:01.771Z,138.68
2023-04-15T06:39:01.019Z,138.42
2023-04-15T06:40:00.853Z,140.76
2023-04-15T06:41:01.927Z,138.12
2023-04-15T06:42:01.963Z,138.61
2023-04-15T06:43:02.016Z,135.49
2023-04-15T06:44:02.080Z,135.10
2023-04-15T06:45:02.156Z,136.52
2023-04-15T06:46:02.262Z,136.14
2023-04-15T06:47:02.303Z,137.06
2023-04-15T06:48:02.297Z,137.79
2023-04-15T06:49:02.559Z,135.81
2023-04-15T06:50:02.500Z,137.07
2023-04-15T06:51:02.496Z,136.98
2023-04-15T06:52:01.563Z,137.53
2023-04-15T06:53:01.622Z,138.15
2023-04-15T06:54:01.682Z,135.61
2023-04-15T06:55:02.770Z,135.67
2023-04-15T06:56:02.803Z,136.04
2023-04-15T06:57:02.876Z,133.09
2023-04-15T06:58:02.907Z,133.78
2023-04-15T06:59:03.083Z,135.69
2023-04-15T07:00:03.040Z,136.28
2023-04-15T07:01:03.154Z,136.61
2023-04-15T07:02:02.190Z,133.11
2023-04-15T07:03:03.258Z,136.06
2023-04-15T07:04:03.303Z,138.30
2023-04-15T07:05:03.344Z,136.63
2023-04-15T07:06:03.394Z,135.49
2023-04-15T07:07:03.451Z,133.60
2023-04-15T07:08:02.494Z,135.91
2023-04-15T07:09:03.862Z,134.88
2023-04-15T07:10:03.625Z,134.33
2023-04-15T07:11:02.669Z,135.38
2023-04-15T07:12:03.733Z,134.16
2023-04-15T07:13:03.785Z,132.50
2023-04-15T07:14:03.850Z,132.79
2023-04-15T07:15:03.921Z,134.28
2023-04-15T07:16:03.960Z,133.28
2023-04-15T07:17:03.104Z,134.15
2023-04-15T07:18:04.140Z,134.30
2023-04-15T07:19:04.467Z,132.20
2023-04-15T07:20:04.189Z,133.31
2023-04-15T07:21:03.270Z,131.37
2023-04-15T07:22:04.324Z,133.46
2023-04-15T07:23:04.388Z,134.31
2023-04-15T07:24:04.448Z,133.89
2023-04-15T07:25:04.526Z,129.45
2023-04-15T07:26:04.554Z,131.82
2023-04-15T07:27:03.630Z,132.65
2023-04-15T07:28:03.693Z,132.89
2023-04-15T07:29:04.764Z,132.05
2023-04-15T07:30:04.890Z,131.41
2023-04-15T07:31:04.939Z,131.77
2023-04-15T07:32:04.994Z,135.46
2023-04-15T07:33:05.063Z,133.17
2023-04-15T07:34:05.080Z,134.95
2023-04-15T07:35:05.169Z,134.54
2023-04-15T07:36:04.240Z,133.17
2023-04-15T07:37:04.293Z,131.96
2023-04-15T07:38:05.388Z,136.04
2023-04-15T07:39:05.464Z,134.96
2023-04-15T07:40:05.484Z,136.38
2023-04-15T07:41:04.491Z,135.53
2023-04-15T07:42:05.690Z,134.20
2023-04-15T07:43:04.613Z,135.22
2023-04-15T07:44:04.669Z,136.42
2023-04-15T07:45:05.746Z,134.87
2023-04-15T07:46:05.807Z,135.32
2023-04-15T07:47:05.833Z,131.82
2023-04-15T07:48:05.912Z,132.80
2023-04-15T07:49:05.102Z,133.65
2023-04-15T07:50:06.049Z,134.89
2023-04-15T07:51:06.080Z,133.23
2023-04-15T07:52:06.149Z,136.05
2023-04-15T07:53:05.197Z,139.07
2023-04-15T07:54:05.272Z,135.34
2023-04-15T07:55:06.335Z,135.85
2023-04-15T07:56:06.402Z,137.68
2023-04-15T07:57:06.444Z,135.49
2023-04-15T07:58:05.525Z,133.47
2023-04-15T07:59:06.585Z,134.85
2023-04-15T08:00:05.783Z,133.90
2023-04-15T08:01:06.709Z,134.99
2023-04-15T08:02:06.789Z,133.58
2023-04-15T08:03:07.005Z,134.01
2023-04-15T08:04:06.099Z,134.39
2023-04-15T08:05:07.071Z,135.88
2023-04-15T08:06:06.033Z,137.13
2023-04-15T08:07:07.102Z,132.64
2023-04-15T08:08:06.173Z,134.35
2023-04-15T08:09:07.221Z,132.98
2023-04-15T08:10:06.248Z,133.72
2023-04-15T08:11:06.361Z,136.10
2023-04-15T08:12:06.466Z,134.88
2023-04-15T08:13:06.722Z,135.61
2023-04-15T08:14:06.533Z,134.33
2023-04-15T08:15:07.596Z,136.14
2023-04-15T08:16:07.716Z,135.82
2023-04-15T08:17:07.697Z,133.96
2023-04-15T08:18:06.767Z,134.83
2023-04-15T08:19:07.105Z,133.80
2023-04-15T08:20:07.889Z,133.04
2023-04-15T08:21:08.016Z,133.20
2023-04-15T08:22:10.457Z,133.42
2023-04-15T08:23:08.017Z,133.58
2023-04-15T08:24:08.027Z,132.60
2023-04-15T08:25:07.995Z,132.88
2023-04-15T08:26:07.977Z,132.02
2023-04-15T08:27:06.970Z,132.73
2023-04-15T08:28:07.995Z,131.65
2023-04-15T08:29:06.969Z,132.33
2023-04-15T08:30:07.977Z,131.16
2023-04-15T08:31:06.997Z,129.86
2023-04-15T08:32:07.960Z,130.06
2023-04-15T08:33:08.027Z,128.36
2023-04-15T08:34:07.106Z,129.11
2023-04-15T08:35:08.151Z,129.30
2023-04-15T08:36:07.291Z,131.17
2023-04-15T08:37:07.321Z,130.73
2023-04-15T08:38:08.372Z,131.38
2023-04-15T08:39:08.410Z,128.10
2023-04-15T08:40:08.478Z,128.97
2023-04-15T08:41:08.565Z,130.51
2023-04-15T08:42:08.593Z,130.07
2023-04-15T08:43:08.645Z,131.09
2023-04-15T08:44:07.724Z,131.78
2023-04-15T08:45:08.762Z,130.65
2023-04-15T08:46:08.827Z,129.94
2023-04-15T08:47:08.923Z,131.17
2023-04-15T08:48:08.951Z,129.04
2023-04-15T08:49:09.031Z,129.57
2023-04-15T08:50:09.114Z,130.78
2023-04-15T08:51:08.194Z,131.85
2023-04-15T08:52:08.275Z,133.02
2023-04-15T08:53:09.320Z,129.49
2023-04-15T08:54:08.382Z,134.24
2023-04-15T08:55:09.412Z,132.86
2023-04-15T08:56:09.517Z,134.46
2023-04-15T08:57:09.537Z,131.11
2023-04-15T08:58:08.587Z,129.97
2023-04-15T08:59:09.661Z,129.57
2023-04-15T09:00:09.740Z,125.35
2023-04-15T09:01:08.871Z,128.90
2023-04-15T09:02:09.972Z,128.81
2023-04-15T09:03:09.989Z,127.04
2023-04-15T09:04:10.021Z,128.12
2023-04-15T09:05:10.212Z,127.94
2023-04-15T09:06:10.112Z,129.35
2023-04-15T09:07:10.170Z,129.45
2023-04-15T09:08:09.281Z,129.90
2023-04-15T09:09:10.301Z,129.56
2023-04-15T09:10:10.378Z,129.26
2023-04-15T09:11:10.446Z,126.07
2023-04-15T09:12:10.493Z,127.24
2023-04-15T09:13:09.539Z,126.09
2023-04-15T09:14:10.604Z,124.31
2023-04-15T09:15:10.663Z,124.84
2023-04-15T09:16:09.777Z,125.38
2023-04-15T09:17:10.791Z,125.30
2023-04-15T09:18:10.860Z,125.36
2023-04-15T09:19:10.900Z,124.57
2023-04-15T09:20:11.001Z,125.37
2023-04-15T09:21:10.057Z,125.64
2023-04-15T09:22:11.113Z,125.61
2023-04-15T09:23:10.166Z,124.58
2023-04-15T09:24:10.222Z,124.12
2023-04-15T09:25:11.307Z,125.31
2023-04-15T09:26:11.350Z,124.39
2023-04-15T09:27:11.441Z,125.03
2023-04-15T09:28:11.465Z,125.86
2023-04-15T09:29:11.523Z,125.25
2023-04-15T09:30:11.584Z,125.44
2023-04-15T09:31:11.663Z,125.07
2023-04-15T09:32:10.702Z,124.14
2023-04-15T09:33:11.796Z,125.64
2023-04-15T09:34:10.836Z,127.32
2023-04-15T09:35:10.905Z,124.11
2023-04-15T09:36:11.947Z,125.54
2023-04-15T09:37:12.977Z,126.01
2023-04-15T09:38:12.003Z,126.28
2023-04-15T09:39:11.977Z,126.77
2023-04-15T09:40:10.984Z,126.87
2023-04-15T09:41:10.999Z,128.47
2023-04-15T09:42:11.960Z,129.51
2023-04-15T09:43:11.957Z,128.30
2023-04-15T09:44:11.967Z,127.65
2023-04-15T09:45:11.960Z,126.88
2023-04-15T09:46:12.005Z,125.59
2023-04-15T09:47:11.920Z,124.89
2023-04-15T09:48:10.911Z,124.38
2023-04-15T09:49:11.985Z,126.31
2023-04-15T09:50:11.909Z,122.76
2023-04-15T09:51:11.922Z,124.92
2023-04-15T09:52:11.895Z,124.63
2023-04-15T09:53:11.913Z,124.28
2023-04-15T09:54:11.869Z,125.46
2023-04-15T09:55:11.879Z,123.65
2023-04-15T09:56:11.892Z,122.48
2023-04-15T09:57:11.918Z,122.23
2023-04-15T09:58:11.852Z,125.14
2023-04-15T09:59:11.874Z,124.55
2023-04-15T10:00:11.844Z,122.66
2023-04-15T10:01:10.845Z,123.65
2023-04-15T10:02:10.884Z,122.63
2023-04-15T10:03:12.090Z,125.16
2023-04-15T10:04:10.946Z,122.96
2023-04-15T10:05:11.803Z,124.27
2023-04-15T10:06:11.809Z,125.62
2023-04-15T10:07:11.862Z,124.12
2023-04-15T10:08:10.796Z,124.32
2023-04-15T10:09:11.773Z,125.88
2023-04-15T10:10:11.813Z,125.10
2023-04-15T10:11:11.758Z,125.43
2023-04-15T10:12:11.764Z,125.68
2023-04-15T10:13:11.782Z,123.87
2023-04-15T10:14:11.763Z,124.54
2023-04-15T10:15:10.781Z,123.99
2023-04-15T10:16:10.837Z,124.51
2023-04-15T10:17:11.789Z,125.42
2023-04-15T10:18:10.912Z,124.44
2023-04-15T10:19:11.812Z,124.25
2023-04-15T10:20:11.852Z,123.88
2023-04-15T10:21:11.882Z,123.23
2023-04-15T10:22:11.917Z,123.52
2023-04-15T10:23:12.818Z,126.91
2023-04-15T10:24:11.957Z,124.99
2023-04-15T10:25:12.010Z,124.02
2023-04-15T10:26:12.048Z,123.41
2023-04-15T10:27:11.075Z,124.00
2023-04-15T10:28:11.133Z,121.77
2023-04-15T10:29:11.135Z,124.08
2023-04-15T10:30:12.148Z,121.92
2023-04-15T10:31:11.169Z,122.13
2023-04-15T10:32:11.196Z,126.71
2023-04-15T10:33:12.197Z,125.82
2023-04-15T10:34:12.250Z,124.67
2023-04-15T10:35:12.205Z,122.79
2023-04-15T10:36:11.214Z,123.05
2023-04-15T10:37:12.210Z,126.09
2023-04-15T10:38:12.236Z,124.30
2023-04-15T10:39:11.257Z,125.43
2023-04-15T10:40:11.244Z,123.04
2023-04-15T10:41:12.298Z,124.41
2023-04-15T10:42:11.264Z,127.07
2023-04-15T10:43:12.264Z,125.44
2023-04-15T10:44:12.278Z,124.12
2023-04-15T10:45:12.301Z,125.41
2023-04-15T10:46:12.290Z,125.64
2023-04-15T10:47:12.321Z,122.18
2023-04-15T10:48:12.336Z,123.36
2023-04-15T10:49:12.304Z,123.69
2023-04-15T10:50:12.312Z,123.81
2023-04-15T10:51:12.308Z,124.85
2023-04-15T10:52:12.361Z,126.34
2023-04-15T10:53:12.329Z,122.26
2023-04-15T10:54:12.292Z,125.31
2023-04-15T10:55:12.315Z,122.67
2023-04-15T10:56:12.300Z,124.85
2023-04-15T10:57:12.358Z,121.71
2023-04-15T10:58:12.382Z,122.22
2023-04-15T10:59:12.345Z,120.78
2023-04-15T11:00:11.414Z,120.79
2023-04-15T11:01:12.418Z,121.59
2023-04-15T11:02:12.517Z,119.05
2023-04-15T11:03:12.997Z,123.61
2023-04-15T11:04:12.579Z,120.22
2023-04-15T11:05:12.500Z,120.63
2023-04-15T11:06:11.514Z,119.02
2023-04-15T11:07:12.546Z,122.07
2023-04-15T11:08:11.534Z,120.44
2023-04-15T11:09:12.550Z,118.65
2023-04-15T11:10:12.544Z,118.54
2023-04-15T11:11:11.603Z,119.73
2023-04-15T11:12:12.572Z,119.87
2023-04-15T11:13:12.557Z,118.58
2023-04-15T11:14:12.558Z,119.01
2023-04-15T11:15:11.582Z,118.01
2023-04-15T11:16:12.600Z,118.40
2023-04-15T11:17:12.649Z,119.94
2023-04-15T11:18:12.722Z,119.32
2023-04-15T11:19:12.614Z,119.64
2023-04-15T11:20:12.661Z,117.63
2023-04-15T11:21:11.636Z,118.05
2023-04-15T11:22:11.619Z,118.67
2023-04-15T11:23:15.321Z,118.08
2023-04-15T11:24:12.657Z,118.14
2023-04-15T11:25:12.637Z,118.66
2023-04-15T11:26:11.620Z,118.67
2023-04-15T11:27:11.624Z,118.76
2023-04-15T11:28:11.599Z,117.55
2023-04-15T11:29:12.589Z,114.62
2023-04-15T11:30:12.651Z,117.81
2023-04-15T11:31:11.595Z,120.09
2023-04-15T11:32:12.635Z,118.32
2023-04-15T11:33:12.655Z,119.66
2023-04-15T11:34:11.569Z,116.71
2023-04-15T11:35:11.552Z,118.55
2023-04-15T11:36:12.551Z,117.58
2023-04-15T11:37:11.527Z,120.45
2023-04-15T11:38:12.576Z,118.37
2023-04-15T11:39:12.542Z,120.60
2023-04-15T11:40:11.529Z,120.26
2023-04-15T11:41:11.524Z,115.65
2023-04-15T11:42:12.502Z,116.33
2023-04-15T11:43:12.527Z,116.03
2023-04-15T11:44:12.493Z,112.94
2023-04-15T11:45:11.483Z,113.14
2023-04-15T11:46:12.515Z,113.03
2023-04-15T11:47:11.495Z,113.26
2023-04-15T11:48:12.509Z,113.79
2023-04-15T11:49:12.473Z,114.08
2023-04-15T11:50:11.452Z,113.30
2023-04-15T11:51:12.448Z,112.58
2023-04-15T11:52:11.438Z,114.30
2023-04-15T11:53:11.441Z,114.98
2023-04-15T11:54:12.417Z,114.19
2023-04-15T11:55:11.426Z,116.43
2023-04-15T11:56:11.419Z,113.10
2023-04-15T11:57:11.409Z,112.73
2023-04-15T11:58:13.594Z,113.58
2023-04-15T11:59:12.387Z,114.52
2023-04-15T12:00:12.379Z,115.99
2023-04-15T12:01:11.384Z,114.56
2023-04-15T12:02:11.443Z,115.07
2023-04-15T12:03:12.737Z,114.86
2023-04-15T12:04:11.666Z,114.34
2023-04-15T12:05:12.425Z,113.57
2023-04-15T12:06:12.405Z,113.57
2023-04-15T12:07:12.348Z,109.52
2023-04-15T12:08:12.335Z,114.24
2023-04-15T12:09:12.318Z,115.73
2023-04-15T12:10:12.324Z,114.19
2023-04-15T12:11:12.309Z,113.18
2023-04-15T12:12:12.322Z,116.15
2023-04-15T12:13:12.301Z,113.90
2023-04-15T12:14:11.286Z,115.03
2023-04-15T12:15:12.274Z,112.39
2023-04-15T12:16:11.312Z,113.59
2023-04-15T12:17:12.257Z,117.44
2023-04-15T12:18:12.343Z,114.40
2023-04-15T12:19:12.285Z,114.73
2023-04-15T12:20:12.238Z,112.80
2023-04-15T12:21:12.292Z,113.83
2023-04-15T12:22:12.235Z,111.55
2023-04-15T12:23:12.234Z,110.86
2023-04-15T12:24:12.218Z,108.88
2023-04-15T12:25:12.215Z,110.14
2023-04-15T12:26:12.194Z,109.46
2023-04-15T12:27:11.194Z,108.97
2023-04-15T12:28:12.193Z,108.77
2023-04-15T12:29:12.169Z,110.30